createdAt,value
2019-01-12T00:03:22.362Z,4.40
2019-01-12T00:05:48.120Z,4.44
2019-01-12T00:08:13.891Z,4.44
2019-01-12T00:10:39.654Z,4.47
2019-01-12T00:13:05.435Z,4.51
2019-01-12T00:15:31.194Z,4.56
2019-01-12T00:17:56.980Z,4.55
2019-01-12T00:20:22.754Z,4.55
2019-01-12T00:22:48.533Z,4.56
2019-01-12T00:25:14.298Z,4.58
2019-01-12T00:27:40.068Z,4.58
2019-01-12T00:30:25.760Z,4.56
2019-01-12T00:32:51.490Z,4.59
2019-01-12T00:35:17.276Z,4.62
2019-01-12T00:37:43.023Z,4.64
2019-01-12T00:40:08.797Z,4.64
2019-01-12T00:42:34.571Z,4.66
2019-01-12T00:45:00.344Z,4.66
2019-01-12T00:47:26.111Z,4.67
2019-01-12T00:49:51.903Z,4.69
2019-01-12T00:52:17.910Z,4.71
2019-01-12T00:54:43.688Z,4.72
2019-01-12T00:57:09.465Z,4.72
2019-01-12T00:59:35.224Z,4.74
2019-01-12T01:02:00.986Z,4.74
2019-01-12T01:04:26.755Z,4.74
2019-01-12T01:06:52.530Z,4.76
2019-01-12T01:09:18.295Z,4.76
2019-01-12T01:11:44.078Z,4.75
2019-01-12T01:14:09.835Z,4.78
2019-01-12T01:16:35.608Z,4.81
2019-01-12T01:19:01.374Z,4.82
2019-01-12T01:21:27.179Z,4.86
2019-01-12T01:23:52.937Z,4.88
2019-01-12T01:26:18.716Z,4.87
2019-01-12T01:29:04.366Z,4.86
2019-01-12T01:31:30.143Z,4.86
2019-01-12T01:33:55.923Z,4.86
2019-01-12T01:36:21.684Z,4.89
2019-01-12T01:38:47.439Z,4.90
2019-01-12T01:44:07.097Z,4.97
2019-01-12T01:46:32.866Z,5.00
2019-01-12T01:48:58.622Z,5.01
2019-01-12T01:51:24.411Z,5.00
2019-01-12T01:53:50.178Z,5.02
2019-01-12T01:56:15.962Z,4.98
2019-01-12T01:58:41.719Z,4.98
2019-01-12T02:01:07.493Z,4.96
2019-01-12T02:03:33.273Z,5.01
2019-01-12T02:05:59.055Z,5.03
2019-01-12T02:08:24.805Z,5.04
2019-01-12T02:10:50.594Z,5.47
2019-01-12T02:13:16.356Z,5.82
2019-01-12T02:15:42.141Z,5.36
2019-01-12T02:18:07.897Z,5.14
2019-01-12T02:20:33.666Z,5.10
2019-01-12T02:22:59.444Z,5.07
2019-01-12T02:25:25.215Z,5.07
2019-01-12T02:27:50.992Z,5.05
2019-01-12T02:30:58.453Z,5.04
2019-01-12T02:33:24.235Z,5.04
2019-01-12T02:35:49.979Z,5.06
2019-01-12T02:38:15.754Z,5.10
2019-01-12T02:40:41.511Z,5.12
2019-01-12T02:43:07.293Z,5.17
2019-01-12T02:45:33.054Z,5.16
2019-01-12T02:47:58.835Z,5.17
2019-01-12T02:50:24.600Z,5.21
2019-01-12T02:52:50.386Z,5.19
2019-01-12T02:55:16.138Z,5.20
2019-01-12T02:57:41.914Z,5.16
2019-01-12T03:00:27.552Z,5.19
2019-01-12T03:02:53.327Z,5.20
2019-01-12T03:05:19.080Z,5.20
2019-01-12T03:07:44.849Z,5.20
2019-01-12T03:10:52.282Z,5.22
2019-01-12T03:13:18.061Z,5.21
2019-01-12T03:15:43.814Z,5.24
2019-01-12T03:18:09.582Z,5.25
2019-01-12T03:20:35.363Z,5.26
2019-01-12T03:23:01.142Z,5.27
2019-01-12T03:25:26.905Z,5.25
2019-01-12T03:27:52.698Z,5.25
2019-01-12T03:30:18.479Z,5.22
2019-01-12T03:32:44.222Z,5.21
2019-01-12T03:35:10.098Z,5.21
2019-01-12T03:37:35.923Z,5.17
2019-01-12T03:40:43.378Z,5.19
2019-01-12T03:43:09.126Z,5.20
2019-01-12T03:45:34.881Z,5.19
2019-01-12T03:48:00.661Z,5.19
2019-01-12T03:50:26.425Z,5.25
2019-01-12T03:52:52.208Z,5.27
2019-01-12T03:55:25.210Z,5.31
2019-01-12T03:57:45.756Z,5.37
2019-01-12T04:00:31.421Z,5.42
2019-01-12T04:02:57.282Z,5.43
2019-01-12T04:05:23.058Z,5.47
2019-01-12T04:07:48.822Z,5.47
2019-01-12T04:10:14.715Z,5.48
2019-01-12T04:12:40.464Z,5.45
2019-01-12T04:15:26.119Z,5.49
2019-01-12T04:17:51.873Z,5.47
2019-01-12T04:20:17.662Z,5.48
2019-01-12T04:22:43.529Z,5.51
2019-01-12T04:25:09.408Z,5.55
2019-01-12T04:27:35.163Z,5.54
2019-01-12T04:30:00.944Z,5.48
2019-01-12T04:32:26.719Z,5.44
2019-01-12T04:34:52.493Z,5.48
2019-01-12T04:37:18.260Z,5.49
2019-01-12T04:39:44.033Z,5.46
2019-01-12T04:42:09.784Z,5.35
2019-01-12T04:44:35.570Z,5.25
2019-01-12T04:47:01.347Z,5.19
2019-01-12T04:49:27.131Z,5.18
2019-01-12T04:51:52.921Z,5.24
2019-01-12T04:54:18.659Z,5.51
2019-01-12T04:56:44.432Z,5.29
2019-01-12T04:59:10.206Z,5.29
2019-01-12T05:01:36.013Z,5.27
2019-01-12T05:04:01.791Z,4.39
2019-01-12T05:06:27.557Z,5.23
2019-01-12T05:08:53.329Z,5.23
2019-01-12T05:12:01.297Z,5.21
2019-01-12T05:14:27.020Z,5.22
2019-01-12T05:16:52.812Z,5.23
2019-01-12T05:19:18.619Z,5.27
2019-01-12T05:21:44.387Z,5.25
2019-01-12T05:24:10.160Z,5.22
2019-01-12T05:26:35.934Z,5.21
2019-01-12T05:29:01.719Z,5.23
2019-01-12T05:31:27.483Z,5.21
2019-01-12T05:33:53.242Z,5.23
2019-01-12T05:36:19.006Z,5.53
2019-01-12T05:38:44.772Z,5.69
2019-01-12T05:41:10.577Z,5.62
2019-01-12T05:43:36.335Z,5.35
2019-01-12T05:46:02.089Z,5.28
2019-01-12T05:48:27.857Z,5.24
2019-01-12T05:50:53.622Z,5.22
2019-01-12T05:53:19.410Z,5.26
2019-01-12T05:55:45.177Z,5.22
2019-01-12T05:58:10.955Z,5.22
2019-01-12T06:00:36.718Z,5.20
2019-01-12T06:03:02.689Z,5.18
2019-01-12T06:05:28.439Z,5.21
2019-01-12T06:07:54.207Z,5.20
2019-01-12T06:10:19.960Z,5.18
2019-01-12T06:12:45.774Z,5.25
2019-01-12T06:15:53.211Z,5.21
2019-01-12T06:18:18.989Z,5.23
2019-01-12T06:20:44.779Z,5.20
2019-01-12T06:23:10.564Z,5.20
2019-01-12T06:25:36.349Z,5.16
2019-01-12T06:28:02.209Z,5.22
2019-01-12T06:30:27.995Z,5.14
2019-01-12T06:32:53.744Z,5.09
2019-01-12T06:35:19.516Z,5.12
2019-01-12T06:37:45.384Z,5.14
2019-01-12T06:40:52.855Z,5.16
2019-01-12T06:43:18.611Z,5.18
2019-01-12T06:45:44.405Z,5.17
2019-01-12T06:48:10.181Z,5.16
2019-01-12T06:50:35.962Z,5.19
2019-01-12T06:53:01.741Z,5.23
2019-01-12T06:55:47.399Z,5.17
2019-01-12T06:58:13.158Z,5.17
2019-01-12T07:00:38.933Z,5.15
2019-01-12T07:03:04.708Z,5.13
2019-01-12T07:05:30.492Z,5.12
2019-01-12T07:07:56.249Z,5.06
2019-01-12T07:10:22.011Z,5.06
2019-01-12T07:12:47.781Z,5.05
2019-01-12T07:15:55.244Z,5.06
2019-01-12T07:18:21.003Z,5.09
2019-01-12T07:23:40.900Z,5.09
2019-01-12T07:26:06.666Z,5.09
2019-01-12T07:28:32.422Z,5.11
2019-01-12T07:30:58.203Z,5.06
2019-01-12T07:33:23.975Z,5.09
2019-01-12T07:35:49.858Z,5.11
2019-01-12T07:38:15.613Z,5.08
2019-01-12T07:40:41.368Z,5.11
2019-01-12T07:43:07.156Z,5.10
2019-01-12T07:45:32.922Z,5.12
2019-01-12T07:47:58.690Z,5.15
2019-01-12T07:50:24.584Z,5.11
2019-01-12T07:52:50.356Z,5.37
2019-01-12T07:55:16.127Z,5.58
2019-01-12T07:57:41.990Z,5.79
2019-01-12T08:00:49.467Z,5.80
2019-01-12T08:03:15.231Z,5.42
2019-01-12T08:05:41.006Z,5.23
2019-01-12T08:08:06.775Z,5.63
2019-01-12T08:10:32.550Z,5.73
2019-01-12T08:12:58.309Z,5.76
2019-01-12T08:15:24.067Z,5.84
2019-01-12T08:17:49.838Z,5.76
2019-01-12T08:20:15.619Z,5.29
2019-01-12T08:22:41.389Z,5.24
2019-01-12T08:25:48.842Z,5.22
2019-01-12T08:28:14.614Z,5.21
2019-01-12T08:30:40.373Z,5.16
2019-01-12T08:33:06.159Z,5.12
2019-01-12T08:35:31.913Z,5.10
2019-01-12T08:37:57.682Z,5.05
2019-01-12T08:40:23.440Z,5.09
2019-01-12T08:42:49.319Z,5.06
2019-01-12T08:45:15.094Z,5.09
2019-01-12T08:47:40.864Z,5.06
2019-01-12T08:50:48.311Z,5.05
2019-01-12T08:53:14.065Z,5.49
2019-01-12T08:55:39.853Z,5.18
2019-01-12T08:58:05.621Z,5.12
2019-01-12T09:00:31.374Z,5.17
2019-01-12T09:02:57.160Z,5.19
2019-01-12T09:05:22.943Z,5.20
2019-01-12T09:07:48.695Z,5.29
2019-01-12T09:10:56.132Z,5.49
2019-01-12T09:13:21.911Z,5.47
2019-01-12T09:15:47.678Z,5.41
2019-01-12T09:18:13.444Z,5.42
2019-01-12T09:20:39.238Z,5.35
2019-01-12T09:23:05.002Z,5.32
2019-01-12T09:25:30.804Z,5.29
2019-01-12T09:27:56.543Z,5.28
2019-01-12T09:30:22.319Z,5.25
2019-01-12T09:32:48.279Z,5.25
2019-01-12T09:35:55.752Z,5.22
2019-01-12T09:38:21.506Z,5.23
2019-01-12T09:40:47.270Z,5.21
2019-01-12T09:43:13.026Z,5.27
2019-01-12T09:45:38.807Z,5.25
2019-01-12T09:48:04.576Z,5.23
2019-01-12T09:50:30.347Z,5.22
2019-01-12T09:52:56.097Z,5.20
2019-01-12T09:55:21.883Z,5.19
2019-01-12T09:57:47.642Z,5.18
2019-01-12T10:00:55.097Z,5.16
2019-01-12T10:03:20.866Z,5.13
2019-01-12T10:05:46.633Z,5.11
2019-01-12T10:08:12.387Z,5.14
2019-01-12T10:10:38.170Z,5.09
2019-01-12T10:13:03.925Z,5.11
2019-01-12T10:15:29.792Z,5.07
2019-01-12T10:17:55.577Z,5.12
2019-01-12T10:20:21.354Z,5.10
2019-01-12T10:22:47.111Z,5.10
2019-01-12T10:25:54.609Z,5.09
2019-01-12T10:28:20.313Z,5.10
2019-01-12T10:30:46.085Z,5.06
2019-01-12T10:33:12.052Z,5.03
2019-01-12T10:35:37.832Z,5.05
2019-01-12T10:38:03.687Z,5.04
2019-01-12T10:40:29.556Z,5.06
2019-01-12T10:42:55.324Z,5.09
2019-01-12T10:45:21.284Z,5.09
2019-01-12T10:47:47.157Z,5.10
2019-01-12T10:50:54.641Z,5.11
2019-01-12T10:53:20.364Z,5.13
2019-01-12T10:55:46.144Z,5.08
2019-01-12T10:58:12.002Z,5.10
2019-01-12T11:00:37.763Z,5.12
2019-01-12T11:03:03.536Z,5.11
2019-01-12T11:05:29.311Z,5.11
2019-01-12T11:07:55.103Z,5.09
2019-01-12T11:10:20.959Z,5.12
2019-01-12T11:12:46.851Z,5.11
2019-01-12T11:15:32.495Z,5.10
2019-01-12T11:17:58.258Z,5.07
2019-01-12T11:20:24.032Z,5.12
2019-01-12T11:22:49.794Z,5.07
2019-01-12T11:25:42.600Z,5.09
2019-01-12T11:28:03.357Z,5.11
2019-01-12T11:30:29.115Z,5.14
2019-01-12T11:32:54.891Z,5.12
2019-01-12T11:35:21.137Z,5.10
2019-01-12T11:37:46.875Z,5.07
2019-01-12T11:40:32.530Z,5.08
2019-01-12T11:42:58.468Z,5.14
2019-01-12T11:45:24.218Z,5.13
2019-01-12T11:47:50.000Z,5.15
2019-01-12T11:50:15.758Z,5.17
2019-01-12T11:53:23.301Z,5.21
2019-01-12T11:55:49.032Z,5.23
2019-01-12T11:58:14.800Z,5.23
2019-01-12T12:00:40.562Z,5.22
2019-01-12T12:03:06.323Z,5.24
2019-01-12T12:05:32.149Z,5.27
2019-01-12T12:07:57.917Z,5.27
2019-01-12T12:10:23.789Z,5.33
2019-01-12T12:12:49.537Z,5.33
2019-01-12T12:18:29.363Z,5.40
2019-01-12T12:20:55.149Z,5.38
2019-01-12T12:23:20.997Z,5.42
2019-01-12T12:25:46.766Z,5.47
2019-01-12T12:28:12.521Z,5.50
2019-01-12T12:30:38.293Z,5.54
2019-01-12T12:33:04.062Z,5.59
2019-01-12T12:35:29.828Z,5.65
2019-01-12T12:37:55.583Z,5.68
2019-01-12T12:41:03.043Z,5.74
2019-01-12T12:43:28.790Z,5.74
2019-01-12T12:45:54.554Z,5.79
2019-01-12T12:48:20.339Z,5.80
2019-01-12T12:50:46.107Z,6.05
2019-01-12T12:56:19.188Z,5.92
2019-01-12T12:58:44.950Z,6.01
2019-01-12T13:01:10.835Z,6.12
2019-01-12T13:03:36.602Z,6.12
2019-01-12T13:08:56.181Z,6.16
2019-01-12T13:11:21.955Z,6.17
2019-01-12T13:13:47.814Z,6.16
2019-01-12T13:16:13.685Z,6.18
2019-01-12T13:18:39.433Z,6.16
2019-01-12T13:21:05.215Z,6.36
2019-01-12T13:23:30.987Z,6.34
2019-01-12T13:25:56.770Z,6.26
2019-01-12T13:28:22.527Z,6.24
2019-01-12T13:30:48.303Z,6.22
2019-01-12T13:33:14.058Z,6.24
2019-01-12T13:35:39.860Z,6.22
2019-01-12T13:38:05.615Z,6.19
2019-01-12T13:40:31.362Z,6.14
2019-01-12T13:42:57.144Z,6.13
2019-01-12T13:45:23.108Z,6.14
2019-01-12T13:47:48.878Z,6.14
2019-01-12T13:50:56.316Z,6.17
2019-01-12T13:53:22.095Z,6.20
2019-01-12T13:55:47.848Z,6.24
2019-01-12T13:58:13.613Z,6.23
2019-01-12T14:00:39.387Z,6.21
2019-01-12T14:03:05.502Z,6.20
2019-01-12T14:05:31.253Z,6.22
2019-01-12T14:08:38.884Z,6.22
2019-01-12T14:11:04.709Z,6.31
2019-01-12T14:13:30.649Z,6.20
2019-01-12T14:15:56.450Z,6.17
2019-01-12T14:18:22.693Z,6.18
2019-01-12T14:23:57.091Z,6.21
2019-01-12T14:26:22.849Z,6.20
2019-01-12T14:28:48.643Z,6.19
2019-01-12T14:31:14.438Z,6.14
2019-01-12T14:33:40.173Z,6.16
2019-01-12T14:36:05.927Z,6.68
2019-01-12T14:38:31.697Z,6.26
2019-01-12T14:40:57.448Z,6.15
2019-01-12T14:43:23.214Z,6.11
2019-01-12T14:45:48.969Z,6.09
2019-01-12T14:48:14.738Z,6.09
2019-01-12T14:50:40.519Z,6.09
2019-01-12T14:53:06.289Z,6.05
2019-01-12T14:55:32.042Z,6.02
2019-01-12T14:58:02.219Z,6.05
2019-01-12T15:01:07.156Z,6.02
2019-01-12T15:03:32.945Z,6.00
2019-01-12T15:06:18.558Z,5.94
2019-01-12T15:08:44.336Z,5.94
2019-01-12T15:11:10.094Z,5.95
2019-01-12T15:13:35.874Z,5.91
2019-01-12T15:16:01.621Z,5.88
2019-01-12T15:18:27.387Z,5.87
2019-01-12T15:20:53.145Z,5.86
2019-01-12T15:23:18.909Z,5.83
2019-01-12T15:25:44.685Z,5.84
2019-01-12T15:28:10.446Z,5.83
2019-01-12T15:30:36.203Z,5.83
2019-01-12T15:33:01.976Z,5.81
2019-01-12T15:36:09.416Z,5.82
2019-01-12T15:38:35.189Z,6.22
2019-01-12T15:41:00.930Z,5.81
2019-01-12T15:43:26.709Z,5.78
2019-01-12T15:45:52.450Z,5.75
2019-01-12T15:48:18.217Z,5.74
2019-01-12T15:50:43.980Z,5.72
2019-01-12T15:53:09.741Z,5.71
2019-01-12T15:55:35.501Z,5.68
2019-01-12T15:58:01.265Z,5.69
2019-01-12T16:00:27.123Z,5.70
2019-01-12T16:02:52.891Z,5.71
2019-01-12T16:05:18.860Z,5.74
2019-01-12T16:07:44.608Z,5.74
2019-01-12T16:13:24.634Z,5.76
2019-01-12T16:15:50.381Z,5.76
2019-01-12T16:18:16.190Z,5.75
2019-01-12T16:20:41.952Z,5.72
2019-01-12T16:23:07.708Z,5.68
2019-01-12T16:25:33.474Z,5.67
2019-01-12T16:27:59.230Z,5.73
2019-01-12T16:30:25.023Z,5.67
2019-01-12T16:32:50.771Z,5.63
2019-01-12T16:35:58.217Z,5.59
2019-01-12T16:38:23.976Z,5.56
2019-01-12T16:40:49.764Z,5.52
2019-01-12T16:43:15.520Z,5.55
2019-01-12T16:45:41.279Z,5.55
2019-01-12T16:48:07.037Z,5.54
2019-01-12T16:50:32.833Z,5.55
2019-01-12T16:52:58.597Z,5.58
2019-01-12T16:55:24.463Z,5.60
2019-01-12T16:57:50.222Z,5.60
2019-01-12T17:03:29.930Z,5.61
2019-01-12T17:05:55.707Z,5.66
2019-01-12T17:08:21.467Z,5.68
2019-01-12T17:10:47.241Z,5.69
2019-01-12T17:13:12.991Z,5.73
2019-01-12T17:15:38.757Z,5.74
2019-01-12T17:18:04.529Z,5.75
2019-01-12T17:20:30.308Z,5.75
2019-01-12T17:26:23.140Z,5.78
2019-01-12T17:28:48.892Z,5.83
2019-01-12T17:31:14.670Z,5.92
2019-01-12T17:33:40.414Z,5.94
2019-01-12T17:36:06.198Z,5.92
2019-01-12T17:38:31.958Z,5.88
2019-01-12T17:40:57.833Z,5.83
2019-01-12T17:43:23.582Z,5.85
2019-01-12T17:45:49.361Z,5.88
2019-01-12T17:48:15.124Z,5.90
2019-01-12T17:50:40.900Z,5.91
2019-01-12T17:53:06.668Z,5.93
2019-01-12T17:55:32.431Z,5.91
2019-01-12T17:57:58.185Z,5.95
2019-01-12T18:01:05.643Z,5.96
2019-01-12T18:03:31.388Z,5.96
2019-01-12T18:05:57.162Z,5.92
2019-01-12T18:08:22.907Z,5.85
2019-01-12T18:10:48.677Z,5.87
2019-01-12T18:13:14.424Z,5.90
2019-01-12T18:15:40.190Z,5.90
2019-01-12T18:18:05.951Z,5.90
2019-01-12T18:20:31.738Z,5.93
2019-01-12T18:22:57.605Z,5.95
2019-01-12T18:25:23.383Z,5.96
2019-01-12T18:27:49.145Z,5.95
2019-01-12T18:30:56.592Z,5.94
2019-01-12T18:33:22.348Z,6.01
2019-01-12T18:35:48.152Z,5.99
2019-01-12T18:38:13.903Z,6.02
2019-01-12T18:40:39.671Z,6.02
2019-01-12T18:43:05.431Z,6.03
2019-01-12T18:45:31.184Z,6.03
2019-01-12T18:47:56.937Z,6.04
2019-01-12T18:51:04.373Z,6.02
2019-01-12T18:53:30.129Z,6.01
2019-01-12T18:55:55.894Z,5.97
2019-01-12T18:58:21.649Z,5.97
2019-01-12T19:00:47.416Z,5.96
2019-01-12T19:03:13.201Z,5.95
2019-01-12T19:05:38.983Z,5.94
2019-01-12T19:08:04.746Z,5.92
2019-01-12T19:10:30.506Z,5.88
2019-01-12T19:12:56.280Z,5.88
2019-01-12T19:16:03.728Z,5.88
2019-01-12T19:18:29.489Z,5.84
2019-01-12T19:20:55.281Z,5.86
2019-01-12T19:23:21.027Z,5.79
2019-01-12T19:25:46.771Z,5.72
2019-01-12T19:28:12.541Z,5.62
2019-01-12T19:30:38.289Z,5.56
2019-01-12T19:33:04.062Z,5.51
2019-01-12T19:35:29.824Z,5.47
2019-01-12T19:37:55.600Z,5.42
2019-01-12T19:41:03.046Z,5.44
2019-01-12T19:43:28.814Z,5.40
2019-01-12T19:45:54.566Z,5.41
2019-01-12T19:48:20.347Z,5.47
2019-01-12T19:50:46.119Z,5.47
2019-01-12T19:53:11.893Z,5.47
2019-01-12T19:55:37.640Z,5.55
2019-01-12T19:58:03.408Z,5.58
2019-01-12T20:00:29.156Z,5.61
2019-01-12T20:02:54.936Z,5.56
2019-01-12T20:05:20.791Z,5.56
2019-01-12T20:07:46.571Z,5.55
2019-01-12T20:10:54.000Z,5.51
2019-01-12T20:13:19.766Z,5.48
2019-01-12T20:15:45.538Z,5.44
2019-01-12T20:18:11.317Z,5.37
2019-01-12T20:20:37.095Z,5.32
2019-01-12T20:23:02.964Z,5.27
2019-01-12T20:28:35.916Z,5.63
2019-01-12T20:31:43.385Z,5.02
2019-01-12T20:38:16.023Z,4.84
2019-01-12T20:41:23.475Z,4.79
2019-01-12T20:44:30.941Z,4.76
2019-01-12T20:47:38.392Z,4.74
2019-01-12T20:50:45.824Z,4.70
2019-01-12T20:53:53.263Z,4.67
2019-01-12T20:57:00.692Z,4.63
2019-01-12T21:00:26.125Z,4.61
2019-01-12T21:03:31.669Z,4.64
2019-01-12T21:06:37.191Z,4.55
2019-01-12T21:09:42.739Z,4.51
2019-01-12T21:12:48.261Z,4.54
2019-01-12T21:15:55.694Z,4.55
2019-01-12T21:18:21.461Z,4.56
2019-01-12T21:20:47.223Z,4.59
2019-01-12T21:23:12.998Z,4.60
2019-01-12T21:25:38.749Z,4.60
2019-01-12T21:28:04.507Z,4.63
2019-01-12T21:30:30.281Z,4.65
2019-01-12T21:32:56.047Z,4.66
2019-01-12T21:35:21.827Z,4.69
2019-01-12T21:37:47.581Z,5.07
2019-01-12T21:40:13.344Z,5.27
2019-01-12T21:42:39.098Z,5.35
2019-01-12T21:45:46.545Z,5.36
2019-01-12T21:48:12.296Z,5.31
2019-01-12T21:50:38.056Z,5.45
2019-01-12T21:53:03.837Z,5.44
2019-01-12T21:55:31.036Z,5.41
2019-01-12T21:57:57.281Z,5.04
2019-01-12T22:00:23.045Z,4.87
2019-01-12T22:02:48.798Z,4.81
2019-01-12T22:05:14.660Z,4.83
2019-01-12T22:07:40.408Z,4.82
2019-01-12T22:10:47.875Z,4.82
2019-01-12T22:13:13.643Z,4.77
2019-01-12T22:15:39.404Z,4.77
2019-01-12T22:18:05.166Z,4.75
2019-01-12T22:20:30.942Z,4.77
2019-01-12T22:23:16.593Z,4.80
2019-01-12T22:25:42.360Z,4.80
2019-01-12T22:28:08.137Z,4.73
2019-01-12T22:30:34.311Z,4.78
2019-01-12T22:33:01.566Z,4.78
2019-01-12T22:35:27.338Z,4.82
2019-01-12T22:38:00.476Z,4.85
2019-01-12T22:40:26.248Z,4.86
2019-01-12T22:42:52.001Z,4.93
2019-01-12T22:45:17.757Z,4.92
2019-01-12T22:47:43.544Z,4.93
2019-01-12T22:50:50.980Z,4.93
2019-01-12T22:53:16.725Z,4.93
2019-01-12T22:55:42.473Z,4.92
2019-01-12T22:58:08.244Z,4.96
2019-01-12T23:01:15.696Z,4.97
2019-01-12T23:04:23.119Z,4.98
2019-01-12T23:06:48.884Z,5.00
2019-01-12T23:09:14.659Z,5.02
2019-01-12T23:11:40.448Z,5.05
2019-01-12T23:14:06.218Z,5.07
2019-01-12T23:16:32.016Z,5.07
2019-01-12T23:18:57.762Z,5.12
2019-01-12T23:21:23.548Z,5.14
2019-01-12T23:23:49.306Z,5.17
2019-01-12T23:29:44.230Z,5.19
2019-01-12T23:32:10.216Z,5.18
2019-01-12T23:34:35.972Z,5.21
2019-01-12T23:37:01.831Z,5.26
2019-01-12T23:39:27.595Z,5.30
2019-01-12T23:41:53.373Z,5.36
2019-01-12T23:44:19.147Z,5.35
2019-01-12T23:46:44.923Z,5.38
2019-01-12T23:52:05.025Z,5.34
2019-01-12T23:54:30.784Z,5.37
2019-01-12T23:56:56.574Z,5.41
2019-01-12T23:59:22.339Z,5.41
